Terminal Aerodrome Forecast
Issued by NWS

Home | Current Version | Previous Version | Text Only | Print | Product List | Glossary On
Versions: 1 2 3 4 5 6 7 8 9 10 11 12 13
413
FTUS45 KABQ 071126
TAFTCC
TAF
KTCC 071126Z 0712/0812 24010KT P6SM FEW050 SCT250
     FM071500 26010KT P6SM SCT250
     FM071700 33010KT P6SM SCT250
     FM071930 05015G23KT P6SM FEW050 SCT250
     FM080100 06013KT P6SM SCT050 SCT250
     FM080800 05010KT P6SM BKN025=

USA.gov is the U.S. government's official web portal to all federal, state and local government web resources and services.